sensor_id;sensor_type;location;lat;lon;timestamp;temperature;humidity
67529;DHT22;54366;51.980;5.856;2023-04-24T00:00:31;11.40;82.50
67529;DHT22;54366;51.980;5.856;2023-04-24T00:03:04;11.40;82.40
67529;DHT22;54366;51.980;5.856;2023-04-24T00:05:32;11.40;82.30
67529;DHT22;54366;51.980;5.856;2023-04-24T00:08:05;11.40;82.50
67529;DHT22;54366;51.980;5.856;2023-04-24T00:10:38;11.40;82.50
67529;DHT22;54366;51.980;5.856;2023-04-24T00:13:11;11.40;82.60
67529;DHT22;54366;51.980;5.856;2023-04-24T00:15:37;11.40;82.50
67529;DHT22;54366;51.980;5.856;2023-04-24T00:18:10;11.30;82.60
67529;DHT22;54366;51.980;5.856;2023-04-24T00:20:43;11.30;82.60
67529;DHT22;54366;51.980;5.856;2023-04-24T00:23:09;11.30;82.50
67529;DHT22;54366;51.980;5.856;2023-04-24T00:25:43;11.40;82.50
67529;DHT22;54366;51.980;5.856;2023-04-24T00:28:16;11.40;82.40
67529;DHT22;54366;51.980;5.856;2023-04-24T00:30:49;11.40;82.50
67529;DHT22;54366;51.980;5.856;2023-04-24T00:33:15;11.40;82.60
67529;DHT22;54366;51.980;5.856;2023-04-24T00:35:48;11.30;82.30
67529;DHT22;54366;51.980;5.856;2023-04-24T00:38:21;11.40;82.40
67529;DHT22;54366;51.980;5.856;2023-04-24T00:40:54;11.40;82.20
67529;DHT22;54366;51.980;5.856;2023-04-24T00:43:20;11.40;82.20
67529;DHT22;54366;51.980;5.856;2023-04-24T00:45:54;11.40;82.20
67529;DHT22;54366;51.980;5.856;2023-04-24T00:48:21;11.40;82.10
67529;DHT22;54366;51.980;5.856;2023-04-24T00:50:55;11.40;82.20
67529;DHT22;54366;51.980;5.856;2023-04-24T00:53:22;11.40;82.10
67529;DHT22;54366;51.980;5.856;2023-04-24T00:55:55;11.30;82.30
67529;DHT22;54366;51.980;5.856;2023-04-24T00:58:22;11.40;82.60
67529;DHT22;54366;51.980;5.856;2023-04-24T01:00:56;11.40;82.60
67529;DHT22;54366;51.980;5.856;2023-04-24T01:03:30;11.40;82.70
67529;DHT22;54366;51.980;5.856;2023-04-24T01:06:10;11.40;82.50
67529;DHT22;54366;51.980;5.856;2023-04-24T01:08:43;11.40;82.50
67529;DHT22;54366;51.980;5.856;2023-04-24T01:11:18;11.40;83.10
67529;DHT22;54366;51.980;5.856;2023-04-24T01:13:51;11.40;82.60
67529;DHT22;54366;51.980;5.856;2023-04-24T01:16:24;11.40;82.60
67529;DHT22;54366;51.980;5.856;2023-04-24T01:18:57;11.40;82.60
67529;DHT22;54366;51.980;5.856;2023-04-24T01:21:30;11.30;82.90
67529;DHT22;54366;51.980;5.856;2023-04-24T01:24:07;11.30;83.00
67529;DHT22;54366;51.980;5.856;2023-04-24T01:26:40;11.30;82.90
67529;DHT22;54366;51.980;5.856;2023-04-24T01:29:13;11.20;82.80
67529;DHT22;54366;51.980;5.856;2023-04-24T01:31:46;11.30;83.30
67529;DHT22;54366;51.980;5.856;2023-04-24T01:34:19;11.30;83.30
67529;DHT22;54366;51.980;5.856;2023-04-24T01:36:52;11.30;83.40
67529;DHT22;54366;51.980;5.856;2023-04-24T01:39:25;11.30;83.80
67529;DHT22;54366;51.980;5.856;2023-04-24T01:42:01;11.20;83.80
67529;DHT22;54366;51.980;5.856;2023-04-24T01:44:35;11.20;83.70
67529;DHT22;54366;51.980;5.856;2023-04-24T01:47:08;11.30;83.60
67529;DHT22;54366;51.980;5.856;2023-04-24T01:49:41;11.30;83.70
67529;DHT22;54366;51.980;5.856;2023-04-24T01:52:14;11.30;83.70
67529;DHT22;54366;51.980;5.856;2023-04-24T01:54:47;11.30;83.80
67529;DHT22;54366;51.980;5.856;2023-04-24T01:57:20;11.30;83.80
67529;DHT22;54366;51.980;5.856;2023-04-24T01:59:46;11.30;83.70
67529;DHT22;54366;51.980;5.856;2023-04-24T02:02:19;11.30;83.60
67529;DHT22;54366;51.980;5.856;2023-04-24T02:04:53;11.30;83.60
67529;DHT22;54366;51.980;5.856;2023-04-24T02:07:27;11.40;83.50
67529;DHT22;54366;51.980;5.856;2023-04-24T02:10:09;11.30;83.40
67529;DHT22;54366;51.980;5.856;2023-04-24T02:12:42;11.40;83.40
67529;DHT22;54366;51.980;5.856;2023-04-24T02:15:15;11.40;83.40
67529;DHT22;54366;51.980;5.856;2023-04-24T02:17:48;11.40;83.20
67529;DHT22;54366;51.980;5.856;2023-04-24T02:20:14;11.40;83.30
67529;DHT22;54366;51.980;5.856;2023-04-24T02:22:47;11.40;83.20
67529;DHT22;54366;51.980;5.856;2023-04-24T02:25:20;11.50;83.30
67529;DHT22;54366;51.980;5.856;2023-04-24T02:27:55;11.40;83.20
67529;DHT22;54366;51.980;5.856;2023-04-24T02:30:28;11.50;83.50
67529;DHT22;54366;51.980;5.856;2023-04-24T02:33:01;11.50;83.40
67529;DHT22;54366;51.980;5.856;2023-04-24T02:35:27;11.40;83.40
67529;DHT22;54366;51.980;5.856;2023-04-24T02:38:00;11.40;83.50
67529;DHT22;54366;51.980;5.856;2023-04-24T02:40:33;11.40;83.60
67529;DHT22;54366;51.980;5.856;2023-04-24T02:43:06;11.30;83.80
67529;DHT22;54366;51.980;5.856;2023-04-24T02:45:39;11.30;83.90
67529;DHT22;54366;51.980;5.856;2023-04-24T02:48:12;11.20;83.80
67529;DHT22;54366;51.980;5.856;2023-04-24T02:50:45;11.20;83.90
67529;DHT22;54366;51.980;5.856;2023-04-24T02:53:11;11.20;84.00
67529;DHT22;54366;51.980;5.856;2023-04-24T02:55:44;11.20;84.00
67529;DHT22;54366;51.980;5.856;2023-04-24T02:58:11;11.20;84.00
67529;DHT22;54366;51.980;5.856;2023-04-24T03:00:45;11.10;84.00
67529;DHT22;54366;51.980;5.856;2023-04-24T03:03:19;11.20;84.20
67529;DHT22;54366;51.980;5.856;2023-04-24T03:05:45;11.20;84.40
67529;DHT22;54366;51.980;5.856;2023-04-24T03:08:18;11.20;84.60
67529;DHT22;54366;51.980;5.856;2023-04-24T03:10:51;11.20;84.60
67529;DHT22;54366;51.980;5.856;2023-04-24T03:13:24;11.20;84.60
67529;DHT22;54366;51.980;5.856;2023-04-24T03:15:57;11.20;84.40
67529;DHT22;54366;51.980;5.856;2023-04-24T03:18:23;11.20;84.30
67529;DHT22;54366;51.980;5.856;2023-04-24T03:20:56;11.20;84.40
67529;DHT22;54366;51.980;5.856;2023-04-24T03:23:29;11.20;84.30
67529;DHT22;54366;51.980;5.856;2023-04-24T03:26:02;11.30;84.30
67529;DHT22;54366;51.980;5.856;2023-04-24T03:28:38;11.20;84.10
67529;DHT22;54366;51.980;5.856;2023-04-24T03:31:12;11.30;84.20
67529;DHT22;54366;51.980;5.856;2023-04-24T03:33:38;11.20;84.30
67529;DHT22;54366;51.980;5.856;2023-04-24T03:36:11;11.20;84.30
67529;DHT22;54366;51.980;5.856;2023-04-24T03:38:44;11.10;84.50
67529;DHT22;54366;51.980;5.856;2023-04-24T03:41:24;11.10;84.40
67529;DHT22;54366;51.980;5.856;2023-04-24T03:44:06;11.10;84.40
67529;DHT22;54366;51.980;5.856;2023-04-24T03:46:40;11.10;84.40
67529;DHT22;54366;51.980;5.856;2023-04-24T03:49:06;11.10;84.40
67529;DHT22;54366;51.980;5.856;2023-04-24T03:51:42;11.10;84.50
67529;DHT22;54366;51.980;5.856;2023-04-24T03:54:22;11.00;84.40
67529;DHT22;54366;51.980;5.856;2023-04-24T03:56:55;11.00;84.50
67529;DHT22;54366;51.980;5.856;2023-04-24T03:59:30;11.00;84.40
67529;DHT22;54366;51.980;5.856;2023-04-24T04:02:10;11.00;84.30
67529;DHT22;54366;51.980;5.856;2023-04-24T04:04:43;11.00;84.30
67529;DHT22;54366;51.980;5.856;2023-04-24T04:07:23;11.00;84.40
67529;DHT22;54366;51.980;5.856;2023-04-24T04:09:56;10.90;84.30
67529;DHT22;54366;51.980;5.856;2023-04-24T04:12:29;10.90;84.20
67529;DHT22;54366;51.980;5.856;2023-04-24T04:15:02;10.90;84.20
67529;DHT22;54366;51.980;5.856;2023-04-24T04:17:35;10.90;84.30
67529;DHT22;54366;51.980;5.856;2023-04-24T04:20:06;10.80;84.20
67529;DHT22;54366;51.980;5.856;2023-04-24T04:22:42;10.80;84.30
67529;DHT22;54366;51.980;5.856;2023-04-24T04:25:21;10.80;84.20
67529;DHT22;54366;51.980;5.856;2023-04-24T04:27:55;10.80;84.20
67529;DHT22;54366;51.980;5.856;2023-04-24T04:30:22;10.80;84.10
67529;DHT22;54366;51.980;5.856;2023-04-24T04:33:01;10.80;84.00
67529;DHT22;54366;51.980;5.856;2023-04-24T04:35:35;10.80;83.90
67529;DHT22;54366;51.980;5.856;2023-04-24T04:38:09;10.70;83.90
67529;DHT22;54366;51.980;5.856;2023-04-24T04:40:47;10.70;83.80
67529;DHT22;54366;51.980;5.856;2023-04-24T04:43:23;10.70;83.70
67529;DHT22;54366;51.980;5.856;2023-04-24T04:45:57;10.70;83.90
67529;DHT22;54366;51.980;5.856;2023-04-24T04:48:50;10.70;83.90
67529;DHT22;54366;51.980;5.856;2023-04-24T04:51:23;10.70;84.00
67529;DHT22;54366;51.980;5.856;2023-04-24T04:53:56;10.60;84.00
67529;DHT22;54366;51.980;5.856;2023-04-24T04:56:29;10.60;84.00
67529;DHT22;54366;51.980;5.856;2023-04-24T04:59:03;10.60;84.00
67529;DHT22;54366;51.980;5.856;2023-04-24T05:01:29;10.60;84.00
67529;DHT22;54366;51.980;5.856;2023-04-24T05:04:03;10.60;84.10
67529;DHT22;54366;51.980;5.856;2023-04-24T05:06:37;10.60;84.20
67529;DHT22;54366;51.980;5.856;2023-04-24T05:09:18;10.60;84.40
67529;DHT22;54366;51.980;5.856;2023-04-24T05:11:55;10.50;84.30
67529;DHT22;54366;51.980;5.856;2023-04-24T05:14:31;10.50;84.40
67529;DHT22;54366;51.980;5.856;2023-04-24T05:16:57;10.60;84.60
67529;DHT22;54366;51.980;5.856;2023-04-24T05:19:31;10.50;84.50
67529;DHT22;54366;51.980;5.856;2023-04-24T05:22:08;10.50;84.60
67529;DHT22;54366;51.980;5.856;2023-04-24T05:24:48;10.60;84.70
67529;DHT22;54366;51.980;5.856;2023-04-24T05:27:41;10.60;84.60
67529;DHT22;54366;51.980;5.856;2023-04-24T05:30:16;10.60;84.50
67529;DHT22;54366;51.980;5.856;2023-04-24T05:32:50;10.70;84.40
67529;DHT22;54366;51.980;5.856;2023-04-24T05:35:23;10.70;84.30
67529;DHT22;54366;51.980;5.856;2023-04-24T05:37:56;10.70;84.40
67529;DHT22;54366;51.980;5.856;2023-04-24T05:40:29;10.80;84.50
67529;DHT22;54366;51.980;5.856;2023-04-24T05:43:02;10.80;84.60
67529;DHT22;54366;51.980;5.856;2023-04-24T05:45:35;10.80;84.60
67529;DHT22;54366;51.980;5.856;2023-04-24T05:48:08;10.90;84.70
67529;DHT22;54366;51.980;5.856;2023-04-24T05:50:41;10.90;84.70
67529;DHT22;54366;51.980;5.856;2023-04-24T05:53:14;10.90;84.40
67529;DHT22;54366;51.980;5.856;2023-04-24T05:55:47;10.90;84.40
67529;DHT22;54366;51.980;5.856;2023-04-24T05:58:20;11.00;84.40
67529;DHT22;54366;51.980;5.856;2023-04-24T06:00:54;11.00;84.30
67529;DHT22;54366;51.980;5.856;2023-04-24T06:03:27;11.00;84.00
67529;DHT22;54366;51.980;5.856;2023-04-24T06:06:09;11.00;83.90
67529;DHT22;54366;51.980;5.856;2023-04-24T06:08:42;11.00;83.80
67529;DHT22;54366;51.980;5.856;2023-04-24T06:11:22;11.00;83.70
67529;DHT22;54366;51.980;5.856;2023-04-24T06:13:55;11.00;83.70
67529;DHT22;54366;51.980;5.856;2023-04-24T06:16:57;11.10;83.70
67529;DHT22;54366;51.980;5.856;2023-04-24T06:19:36;11.10;83.50
67529;DHT22;54366;51.980;5.856;2023-04-24T06:22:09;11.10;83.50
67529;DHT22;54366;51.980;5.856;2023-04-24T06:24:42;11.10;83.70
67529;DHT22;54366;51.980;5.856;2023-04-24T06:27:15;11.20;83.70
67529;DHT22;54366;51.980;5.856;2023-04-24T06:29:48;11.10;84.10
67529;DHT22;54366;51.980;5.856;2023-04-24T06:32:27;11.20;83.70
67529;DHT22;54366;51.980;5.856;2023-04-24T06:34:53;11.20;83.50
67529;DHT22;54366;51.980;5.856;2023-04-24T06:37:26;11.20;83.80
67529;DHT22;54366;51.980;5.856;2023-04-24T06:39:59;11.20;83.70
67529;DHT22;54366;51.980;5.856;2023-04-24T06:42:25;11.30;83.60
67529;DHT22;54366;51.980;5.856;2023-04-24T06:44:58;11.30;83.60
67529;DHT22;54366;51.980;5.856;2023-04-24T06:47:31;11.30;83.50
67529;DHT22;54366;51.980;5.856;2023-04-24T06:50:05;11.40;83.60
67529;DHT22;54366;51.980;5.856;2023-04-24T06:52:31;11.40;83.60
67529;DHT22;54366;51.980;5.856;2023-04-24T06:55:08;11.40;83.60
67529;DHT22;54366;51.980;5.856;2023-04-24T06:57:34;11.40;83.50
67529;DHT22;54366;51.980;5.856;2023-04-24T07:00:08;11.40;83.40
67529;DHT22;54366;51.980;5.856;2023-04-24T07:02:42;11.40;83.60
67529;DHT22;54366;51.980;5.856;2023-04-24T07:05:08;11.40;83.30
67529;DHT22;54366;51.980;5.856;2023-04-24T07:07:47;11.40;83.30
67529;DHT22;54366;51.980;5.856;2023-04-24T07:10:27;11.40;83.40
67529;DHT22;54366;51.980;5.856;2023-04-24T07:13:01;11.40;83.30
67529;DHT22;54366;51.980;5.856;2023-04-24T07:15:27;11.30;83.20
67529;DHT22;54366;51.980;5.856;2023-04-24T07:18:00;11.30;83.30
67529;DHT22;54366;51.980;5.856;2023-04-24T07:20:33;11.30;84.00
67529;DHT22;54366;51.980;5.856;2023-04-24T07:23:06;11.20;83.30
67529;DHT22;54366;51.980;5.856;2023-04-24T07:25:39;11.20;83.40
67529;DHT22;54366;51.980;5.856;2023-04-24T07:28:12;11.30;83.70
67529;DHT22;54366;51.980;5.856;2023-04-24T07:30:39;11.20;83.50
67529;DHT22;54366;51.980;5.856;2023-04-24T07:33:12;11.20;83.40
67529;DHT22;54366;51.980;5.856;2023-04-24T07:35:39;11.20;83.10
67529;DHT22;54366;51.980;5.856;2023-04-24T07:38:12;11.20;83.20
67529;DHT22;54366;51.980;5.856;2023-04-24T07:40:38;11.10;83.20
67529;DHT22;54366;51.980;5.856;2023-04-24T07:43:11;11.00;83.50
67529;DHT22;54366;51.980;5.856;2023-04-24T07:45:44;11.00;83.80
67529;DHT22;54366;51.980;5.856;2023-04-24T07:48:17;10.80;83.30
67529;DHT22;54366;51.980;5.856;2023-04-24T07:50:47;10.80;84.00
67529;DHT22;54366;51.980;5.856;2023-04-24T07:53:19;10.80;84.40
67529;DHT22;54366;51.980;5.856;2023-04-24T07:55:53;10.70;84.20
67529;DHT22;54366;51.980;5.856;2023-04-24T07:58:26;10.70;84.40
67529;DHT22;54366;51.980;5.856;2023-04-24T08:00:59;10.60;84.40
67529;DHT22;54366;51.980;5.856;2023-04-24T08:03:32;10.60;84.60
67529;DHT22;54366;51.980;5.856;2023-04-24T08:06:11;10.50;83.90
67529;DHT22;54366;51.980;5.856;2023-04-24T08:08:44;10.40;84.10
67529;DHT22;54366;51.980;5.856;2023-04-24T08:11:25;10.40;84.60
67529;DHT22;54366;51.980;5.856;2023-04-24T08:13:58;10.40;84.60
67529;DHT22;54366;51.980;5.856;2023-04-24T08:16:33;10.40;84.40
67529;DHT22;54366;51.980;5.856;2023-04-24T08:19:06;10.30;84.20
67529;DHT22;54366;51.980;5.856;2023-04-24T08:21:39;10.30;84.00
67529;DHT22;54366;51.980;5.856;2023-04-24T08:24:12;10.30;84.20
67529;DHT22;54366;51.980;5.856;2023-04-24T08:26:45;10.20;83.90
67529;DHT22;54366;51.980;5.856;2023-04-24T08:29:18;10.20;84.10
67529;DHT22;54366;51.980;5.856;2023-04-24T08:31:44;10.10;84.10
67529;DHT22;54366;51.980;5.856;2023-04-24T08:34:17;10.10;84.70
67529;DHT22;54366;51.980;5.856;2023-04-24T08:36:50;10.10;84.70
67529;DHT22;54366;51.980;5.856;2023-04-24T08:39:30;10.10;84.70
67529;DHT22;54366;51.980;5.856;2023-04-24T08:42:04;10.10;85.00
67529;DHT22;54366;51.980;5.856;2023-04-24T08:44:44;10.10;85.10
67529;DHT22;54366;51.980;5.856;2023-04-24T08:47:18;10.20;85.30
67529;DHT22;54366;51.980;5.856;2023-04-24T08:49:52;10.20;85.30
67529;DHT22;54366;51.980;5.856;2023-04-24T08:52:20;10.20;85.20
67529;DHT22;54366;51.980;5.856;2023-04-24T08:54:55;10.30;85.20
67529;DHT22;54366;51.980;5.856;2023-04-24T08:57:29;10.30;84.80
67529;DHT22;54366;51.980;5.856;2023-04-24T09:00:03;10.30;84.80
67529;DHT22;54366;51.980;5.856;2023-04-24T09:02:31;10.30;84.80
67529;DHT22;54366;51.980;5.856;2023-04-24T09:05:04;10.30;84.80
67529;DHT22;54366;51.980;5.856;2023-04-24T09:07:54;10.40;83.70
67529;DHT22;54366;51.980;5.856;2023-04-24T09:10:28;10.20;83.30
67529;DHT22;54366;51.980;5.856;2023-04-24T09:13:03;10.20;83.10
67529;DHT22;54366;51.980;5.856;2023-04-24T09:15:30;10.10;83.40
67529;DHT22;54366;51.980;5.856;2023-04-24T09:18:04;10.10;84.30
67529;DHT22;54366;51.980;5.856;2023-04-24T09:20:31;10.10;84.50
67529;DHT22;54366;51.980;5.856;2023-04-24T09:23:05;10.20;84.80
67529;DHT22;54366;51.980;5.856;2023-04-24T09:25:33;10.20;84.50
67529;DHT22;54366;51.980;5.856;2023-04-24T09:28:06;10.30;84.60
67529;DHT22;54366;51.980;5.856;2023-04-24T09:30:32;10.30;84.60
67529;DHT22;54366;51.980;5.856;2023-04-24T09:33:15;10.40;84.50
67529;DHT22;54366;51.980;5.856;2023-04-24T09:35:51;10.50;84.30
67529;DHT22;54366;51.980;5.856;2023-04-24T09:38:35;10.60;84.40
67529;DHT22;54366;51.980;5.856;2023-04-24T09:41:08;10.60;83.90
67529;DHT22;54366;51.980;5.856;2023-04-24T09:43:46;10.60;83.00
67529;DHT22;54366;51.980;5.856;2023-04-24T09:46:19;10.60;82.40
67529;DHT22;54366;51.980;5.856;2023-04-24T09:48:47;10.60;80.60
67529;DHT22;54366;51.980;5.856;2023-04-24T09:51:33;10.60;80.90
67529;DHT22;54366;51.980;5.856;2023-04-24T09:54:19;10.60;81.00
67529;DHT22;54366;51.980;5.856;2023-04-24T09:56:55;10.60;81.10
67529;DHT22;54366;51.980;5.856;2023-04-24T09:59:29;10.70;81.20
67529;DHT22;54366;51.980;5.856;2023-04-24T10:01:55;10.70;81.00
67529;DHT22;54366;51.980;5.856;2023-04-24T10:04:29;10.80;81.10
67529;DHT22;54366;51.980;5.856;2023-04-24T10:06:56;10.80;80.90
67529;DHT22;54366;51.980;5.856;2023-04-24T10:09:29;10.90;80.40
67529;DHT22;54366;51.980;5.856;2023-04-24T10:12:02;10.90;81.00
67529;DHT22;54366;51.980;5.856;2023-04-24T10:14:35;11.00;81.00
67529;DHT22;54366;51.980;5.856;2023-04-24T10:17:08;11.10;80.80
67529;DHT22;54366;51.980;5.856;2023-04-24T10:19:35;11.20;80.20
67529;DHT22;54366;51.980;5.856;2023-04-24T10:22:08;11.30;79.80
67529;DHT22;54366;51.980;5.856;2023-04-24T10:24:41;11.50;80.20
67529;DHT22;54366;51.980;5.856;2023-04-24T10:27:14;11.70;81.00
67529;DHT22;54366;51.980;5.856;2023-04-24T10:29:50;12.00;80.00
67529;DHT22;54366;51.980;5.856;2023-04-24T10:32:24;12.10;77.40
67529;DHT22;54366;51.980;5.856;2023-04-24T10:34:50;12.10;77.60
67529;DHT22;54366;51.980;5.856;2023-04-24T10:37:24;12.30;77.80
67529;DHT22;54366;51.980;5.856;2023-04-24T10:39:57;12.30;75.40
67529;DHT22;54366;51.980;5.856;2023-04-24T10:42:30;12.30;73.60
67529;DHT22;54366;51.980;5.856;2023-04-24T10:44:56;12.20;73.30
67529;DHT22;54366;51.980;5.856;2023-04-24T10:47:39;12.20;72.90
67529;DHT22;54366;51.980;5.856;2023-04-24T10:50:13;12.20;72.70
67529;DHT22;54366;51.980;5.856;2023-04-24T10:52:46;12.20;73.20
67529;DHT22;54366;51.980;5.856;2023-04-24T10:55:39;12.10;71.80
67529;DHT22;54366;51.980;5.856;2023-04-24T10:58:12;12.10;72.40
67529;DHT22;54366;51.980;5.856;2023-04-24T11:00:58;12.10;73.00
67529;DHT22;54366;51.980;5.856;2023-04-24T11:03:32;12.20;72.50
67529;DHT22;54366;51.980;5.856;2023-04-24T11:06:07;12.30;72.00
67529;DHT22;54366;51.980;5.856;2023-04-24T11:08:44;12.20;70.90
67529;DHT22;54366;51.980;5.856;2023-04-24T11:11:28;12.10;71.00
67529;DHT22;54366;51.980;5.856;2023-04-24T11:14:06;12.10;70.40
67529;DHT22;54366;51.980;5.856;2023-04-24T11:16:51;11.90;70.50
67529;DHT22;54366;51.980;5.856;2023-04-24T11:19:26;11.90;70.60
67529;DHT22;54366;51.980;5.856;2023-04-24T11:22:03;11.90;71.80
67529;DHT22;54366;51.980;5.856;2023-04-24T11:24:48;12.00;72.40
67529;DHT22;54366;51.980;5.856;2023-04-24T11:27:31;12.00;70.90
67529;DHT22;54366;51.980;5.856;2023-04-24T11:30:05;12.00;69.90
67529;DHT22;54366;51.980;5.856;2023-04-24T11:32:42;11.90;70.20
67529;DHT22;54366;51.980;5.856;2023-04-24T11:35:20;11.90;71.50
67529;DHT22;54366;51.980;5.856;2023-04-24T11:37:53;12.00;71.60
67529;DHT22;54366;51.980;5.856;2023-04-24T11:40:21;12.10;70.70
67529;DHT22;54366;51.980;5.856;2023-04-24T11:43:00;12.10;69.30
67529;DHT22;54366;51.980;5.856;2023-04-24T11:45:33;12.10;68.90
67529;DHT22;54366;51.980;5.856;2023-04-24T11:48:06;12.20;69.70
67529;DHT22;54366;51.980;5.856;2023-04-24T11:50:39;12.30;70.50
67529;DHT22;54366;51.980;5.856;2023-04-24T11:53:12;12.30;69.20
67529;DHT22;54366;51.980;5.856;2023-04-24T11:55:38;12.30;68.60
67529;DHT22;54366;51.980;5.856;2023-04-24T11:58:11;12.30;68.10
67529;DHT22;54366;51.980;5.856;2023-04-24T12:00:44;12.20;68.10
67529;DHT22;54366;51.980;5.856;2023-04-24T12:03:18;12.20;68.80
67529;DHT22;54366;51.980;5.856;2023-04-24T12:05:51;12.10;69.20
67529;DHT22;54366;51.980;5.856;2023-04-24T12:08:31;12.00;69.90
67529;DHT22;54366;51.980;5.856;2023-04-24T12:11:06;11.90;71.30
67529;DHT22;54366;51.980;5.856;2023-04-24T12:13:33;11.80;71.40
67529;DHT22;54366;51.980;5.856;2023-04-24T12:16:07;11.70;72.30
67529;DHT22;54366;51.980;5.856;2023-04-24T12:18:33;11.70;73.50
67529;DHT22;54366;51.980;5.856;2023-04-24T12:21:17;11.70;73.70
67529;DHT22;54366;51.980;5.856;2023-04-24T12:23:50;11.80;74.10
67529;DHT22;54366;51.980;5.856;2023-04-24T12:26:18;11.70;73.10
67529;DHT22;54366;51.980;5.856;2023-04-24T12:28:51;11.70;73.60
67529;DHT22;54366;51.980;5.856;2023-04-24T12:31:24;11.70;72.30
67529;DHT22;54366;51.980;5.856;2023-04-24T12:33:57;11.80;73.50
67529;DHT22;54366;51.980;5.856;2023-04-24T12:36:30;11.90;72.80
67529;DHT22;54366;51.980;5.856;2023-04-24T12:39:03;11.90;71.70
67529;DHT22;54366;51.980;5.856;2023-04-24T12:41:56;12.10;71.40
67529;DHT22;54366;51.980;5.856;2023-04-24T12:44:33;12.30;71.50
67529;DHT22;54366;51.980;5.856;2023-04-24T12:47:07;12.30;70.20
67529;DHT22;54366;51.980;5.856;2023-04-24T12:49:40;12.40;70.00
67529;DHT22;54366;51.980;5.856;2023-04-24T12:52:13;12.40;70.00
67529;DHT22;54366;51.980;5.856;2023-04-24T12:54:46;12.40;69.90
67529;DHT22;54366;51.980;5.856;2023-04-24T12:57:19;12.40;69.00
67529;DHT22;54366;51.980;5.856;2023-04-24T12:59:56;12.40;69.00
67529;DHT22;54366;51.980;5.856;2023-04-24T13:02:31;12.40;69.30
67529;DHT22;54366;51.980;5.856;2023-04-24T13:05:05;12.50;68.60
67529;DHT22;54366;51.980;5.856;2023-04-24T13:07:38;12.40;68.50
67529;DHT22;54366;51.980;5.856;2023-04-24T13:10:24;12.50;68.90
67529;DHT22;54366;51.980;5.856;2023-04-24T13:12:57;12.60;69.30
67529;DHT22;54366;51.980;5.856;2023-04-24T13:15:23;12.60;69.50
67529;DHT22;54366;51.980;5.856;2023-04-24T13:17:57;12.60;69.60
67529;DHT22;54366;51.980;5.856;2023-04-24T13:20:30;12.70;68.40
67529;DHT22;54366;51.980;5.856;2023-04-24T13:23:03;12.70;68.60
67529;DHT22;54366;51.980;5.856;2023-04-24T13:25:36;12.70;67.00
67529;DHT22;54366;51.980;5.856;2023-04-24T13:28:04;12.70;66.50
67529;DHT22;54366;51.980;5.856;2023-04-24T13:30:38;12.60;65.90
67529;DHT22;54366;51.980;5.856;2023-04-24T13:33:11;12.50;64.60
67529;DHT22;54366;51.980;5.856;2023-04-24T13:35:44;12.50;63.50
67529;DHT22;54366;51.980;5.856;2023-04-24T13:38:10;12.40;63.90
67529;DHT22;54366;51.980;5.856;2023-04-24T13:40:43;12.40;64.20
67529;DHT22;54366;51.980;5.856;2023-04-24T13:43:16;12.30;63.90
67529;DHT22;54366;51.980;5.856;2023-04-24T13:45:49;12.30;65.20
67529;DHT22;54366;51.980;5.856;2023-04-24T13:48:22;12.30;65.00
67529;DHT22;54366;51.980;5.856;2023-04-24T13:50:48;12.30;65.30
67529;DHT22;54366;51.980;5.856;2023-04-24T13:53:22;12.30;65.80
67529;DHT22;54366;51.980;5.856;2023-04-24T13:55:48;12.40;65.80
67529;DHT22;54366;51.980;5.856;2023-04-24T13:58:22;12.30;64.90
67529;DHT22;54366;51.980;5.856;2023-04-24T14:00:48;12.40;64.90
67529;DHT22;54366;51.980;5.856;2023-04-24T14:03:21;12.40;66.20
67529;DHT22;54366;51.980;5.856;2023-04-24T14:05:54;12.60;66.20
67529;DHT22;54366;51.980;5.856;2023-04-24T14:08:20;12.70;64.10
67529;DHT22;54366;51.980;5.856;2023-04-24T14:10:53;12.70;60.60
67529;DHT22;54366;51.980;5.856;2023-04-24T14:13:26;12.70;59.70
67529;DHT22;54366;51.980;5.856;2023-04-24T14:15:53;12.60;59.40
67529;DHT22;54366;51.980;5.856;2023-04-24T14:18:26;12.60;59.80
67529;DHT22;54366;51.980;5.856;2023-04-24T14:20:59;12.60;60.30
67529;DHT22;54366;51.980;5.856;2023-04-24T14:23:33;12.60;61.20
67529;DHT22;54366;51.980;5.856;2023-04-24T14:26:07;12.60;60.80
67529;DHT22;54366;51.980;5.856;2023-04-24T14:28:33;12.70;61.50
67529;DHT22;54366;51.980;5.856;2023-04-24T14:31:06;12.80;62.90
67529;DHT22;54366;51.980;5.856;2023-04-24T14:33:39;12.90;62.60
67529;DHT22;54366;51.980;5.856;2023-04-24T14:36:12;13.10;60.80
67529;DHT22;54366;51.980;5.856;2023-04-24T14:38:45;13.20;58.90
67529;DHT22;54366;51.980;5.856;2023-04-24T14:41:18;13.20;57.60
67529;DHT22;54366;51.980;5.856;2023-04-24T14:43:51;13.10;56.30
67529;DHT22;54366;51.980;5.856;2023-04-24T14:46:17;13.10;57.40
67529;DHT22;54366;51.980;5.856;2023-04-24T14:48:50;13.00;58.00
67529;DHT22;54366;51.980;5.856;2023-04-24T14:51:23;13.00;58.40
67529;DHT22;54366;51.980;5.856;2023-04-24T14:53:56;12.90;59.20
67529;DHT22;54366;51.980;5.856;2023-04-24T14:56:29;12.90;58.10
67529;DHT22;54366;51.980;5.856;2023-04-24T14:59:02;12.90;59.70
67529;DHT22;54366;51.980;5.856;2023-04-24T15:01:35;13.00;59.40
67529;DHT22;54366;51.980;5.856;2023-04-24T15:04:08;13.00;58.90
67529;DHT22;54366;51.980;5.856;2023-04-24T15:06:41;12.90;57.20
67529;DHT22;54366;51.980;5.856;2023-04-24T15:09:28;13.00;57.90
67529;DHT22;54366;51.980;5.856;2023-04-24T15:12:01;12.90;57.30
67529;DHT22;54366;51.980;5.856;2023-04-24T15:14:34;13.00;57.60
67529;DHT22;54366;51.980;5.856;2023-04-24T15:17:07;13.00;57.40
67529;DHT22;54366;51.980;5.856;2023-04-24T15:19:40;12.90;56.70
67529;DHT22;54366;51.980;5.856;2023-04-24T15:22:13;12.90;54.70
67529;DHT22;54366;51.980;5.856;2023-04-24T15:24:39;12.70;54.70
67529;DHT22;54366;51.980;5.856;2023-04-24T15:27:12;12.70;56.60
67529;DHT22;54366;51.980;5.856;2023-04-24T15:29:45;12.70;57.20
67529;DHT22;54366;51.980;5.856;2023-04-24T15:32:18;12.70;57.60
67529;DHT22;54366;51.980;5.856;2023-04-24T15:34:51;12.60;57.80
67529;DHT22;54366;51.980;5.856;2023-04-24T15:37:24;12.70;58.00
67529;DHT22;54366;51.980;5.856;2023-04-24T15:39:57;12.70;56.90
67529;DHT22;54366;51.980;5.856;2023-04-24T15:42:32;12.70;57.70
67529;DHT22;54366;51.980;5.856;2023-04-24T15:44:59;12.70;58.50
67529;DHT22;54366;51.980;5.856;2023-04-24T15:47:32;12.70;57.50
67529;DHT22;54366;51.980;5.856;2023-04-24T15:50:06;12.70;57.40
67529;DHT22;54366;51.980;5.856;2023-04-24T15:52:40;12.60;57.70
67529;DHT22;54366;51.980;5.856;2023-04-24T15:55:13;12.60;58.70
67529;DHT22;54366;51.980;5.856;2023-04-24T15:57:39;12.60;58.70
67529;DHT22;54366;51.980;5.856;2023-04-24T16:00:13;12.60;59.30
67529;DHT22;54366;51.980;5.856;2023-04-24T16:02:39;12.60;59.80
67529;DHT22;54366;51.980;5.856;2023-04-24T16:05:12;12.60;59.60
67529;DHT22;54366;51.980;5.856;2023-04-24T16:07:45;12.70;59.40